Time;durP1;ratioP1;P1;durP2;ratioP2;P2;SDS_P1;SDS_P2;PMS_P1;PMS_P2;Temp;Humidity;BMP_temperature;BMP_pressure;BME280_temperature;BME280_humidity;BME280_pressure;Samples;Min_cycle;Max_cycle;Signal;HPM_P1;HPM_P2
2024/02/27 00:00:35;;;;;;;0.70;0.70;;;;;;;0.37;100.00;91490.44;4733455;30;20060;-80
2024/02/27 00:03:01;;;;;;;0.70;0.70;;;;;;;0.37;100.00;91482.72;4739367;30;20051;-80
2024/02/27 00:05:27;;;;;;;0.65;0.63;;;;;;;0.40;100.00;91481.44;4740277;30;20036;-80
2024/02/27 00:07:52;;;;;;;0.70;0.70;;;;;;;0.41;100.00;91485.56;4723004;30;20084;-80
2024/02/27 00:10:18;;;;;;;0.70;0.70;;;;;;;0.45;100.00;91480.69;4737549;30;20537;-80
2024/02/27 00:12:44;;;;;;;0.98;0.82;;;;;;;0.43;100.00;91483.53;4740338;30;20098;-80
2024/02/27 00:15:10;;;;;;;0.73;0.70;;;;;;;0.42;100.00;91481.97;4737585;30;20485;-80
2024/02/27 00:17:35;;;;;;;1.15;0.70;;;;;;;0.41;100.00;91477.84;4739257;30;20397;-81
2024/02/27 00:20:01;;;;;;;0.60;0.60;;;;;;;0.40;100.00;91478.84;4740508;30;20131;-80
2024/02/27 00:22:26;;;;;;;0.70;0.70;;;;;;;0.38;100.00;91483.47;4738714;30;20547;-80
2024/02/27 00:24:52;;;;;;;0.80;0.80;;;;;;;0.35;100.00;91478.84;4738759;30;20056;-80
2024/02/27 00:27:18;;;;;;;3.75;0.70;;;;;;;0.29;100.00;91474.66;4738457;30;20078;-81
2024/02/27 00:29:44;;;;;;;0.75;0.75;;;;;;;0.30;100.00;91478.81;4745401;30;20226;-80
2024/02/27 00:32:09;;;;;;;1.05;0.82;;;;;;;0.28;100.00;91473.13;4741282;30;20153;-80
2024/02/27 00:34:35;;;;;;;1.27;0.80;;;;;;;0.31;100.00;91480.34;4740004;30;20131;-80
2024/02/27 00:37:01;;;;;;;0.70;0.70;;;;;;;0.32;100.00;91485.25;4740233;30;20261;-80
2024/02/27 00:39:26;;;;;;;0.73;0.73;;;;;;;0.32;100.00;91487.06;4740806;30;20036;-80
2024/02/27 00:41:56;;;;;;;96.40;3.67;;;;;;;0.34;100.00;91482.44;4739845;30;20037;-80
2024/02/27 00:44:22;;;;;;;1.05;0.80;;;;;;;0.36;100.00;91485.53;4733639;30;20045;-80
2024/02/27 00:46:48;;;;;;;0.85;0.80;;;;;;;0.35;100.00;91479.59;4739380;30;20491;-80
2024/02/27 00:49:13;;;;;;;0.70;0.70;;;;;;;0.36;100.00;91480.38;4733389;30;20506;-81
2024/02/27 00:51:39;;;;;;;0.73;0.70;;;;;;;0.34;100.00;91472.91;4740330;30;20051;-80
2024/02/27 00:54:05;;;;;;;0.73;0.73;;;;;;;0.35;100.00;91478.84;4739812;30;20541;-81
2024/02/27 00:56:30;;;;;;;0.63;0.63;;;;;;;0.33;100.00;91486.03;4739080;30;20049;-80
2024/02/27 00:58:56;;;;;;;0.70;0.70;;;;;;;0.34;100.00;91477.28;4740622;30;20059;-80
2024/02/27 01:01:22;;;;;;;0.70;0.70;;;;;;;0.40;100.00;91476.28;4740607;30;20035;-80
2024/02/27 01:03:47;;;;;;;0.60;0.60;;;;;;;0.44;100.00;91476.56;4743956;30;20044;-81
2024/02/27 01:06:14;;;;;;;0.60;0.60;;;;;;;0.43;100.00;91470.66;4744175;30;20046;-81
2024/02/27 01:08:39;;;;;;;0.60;0.60;;;;;;;0.46;100.00;91465.00;4742949;30;20053;-80
2024/02/27 01:11:05;;;;;;;0.70;0.70;;;;;;;0.46;100.00;91470.16;4742310;30;20052;-80
2024/02/27 01:13:31;;;;;;;0.70;0.70;;;;;;;0.51;100.00;91469.41;4746087;30;20040;-80
2024/02/27 01:15:56;;;;;;;0.60;0.60;;;;;;;0.50;100.00;91476.34;4747506;30;20036;-80
2024/02/27 01:18:22;;;;;;;0.73;0.73;;;;;;;0.51;100.00;91465.03;4745106;30;20044;-80
2024/02/27 01:20:47;;;;;;;0.60;0.60;;;;;;;0.51;100.00;91471.97;4742226;30;20314;-80
2024/02/27 01:23:13;;;;;;;0.60;0.60;;;;;;;0.47;100.00;91466.53;4751137;30;20080;-79
2024/02/27 01:25:39;;;;;;;0.75;0.75;;;;;;;0.47;100.00;91466.53;4753557;30;20048;-80
2024/02/27 01:28:04;;;;;;;0.70;0.70;;;;;;;0.46;100.00;91462.44;4740301;30;20041;-80
2024/02/27 01:30:30;;;;;;;0.70;0.70;;;;;;;0.43;100.00;91460.34;4747964;30;20104;-80
2024/02/27 01:32:56;;;;;;;0.80;0.80;;;;;;;0.43;100.00;91459.56;4747045;30;20104;-79
2024/02/27 01:35:21;;;;;;;0.68;0.68;;;;;;;0.40;100.00;91455.69;4740367;30;20047;-80
2024/02/27 01:37:47;;;;;;;0.70;0.70;;;;;;;0.39;100.00;91456.72;4743037;30;20063;-79
2024/02/27 01:40:13;;;;;;;0.70;0.70;;;;;;;0.33;100.00;91445.59;4746032;30;20086;-80
2024/02/27 01:42:38;;;;;;;1.00;0.85;;;;;;;0.40;100.00;91451.31;4732706;30;20082;-80
2024/02/27 01:45:06;;;;;;;0.70;0.70;;;;;;;0.40;100.00;91441.00;4728728;30;20048;-80
2024/02/27 01:47:32;;;;;;;0.65;0.65;;;;;;;0.42;100.00;91453.63;4748027;30;20048;-80
2024/02/27 01:49:58;;;;;;;0.90;0.90;;;;;;;0.40;100.00;91446.16;4757658;30;20040;-80
2024/02/27 01:52:23;;;;;;;0.98;0.80;;;;;;;0.35;100.00;91427.34;4744517;30;20036;-80
2024/02/27 01:54:51;;;;;;;0.70;0.70;;;;;;;0.45;100.00;91434.34;4729664;30;20502;-80
2024/02/27 01:57:20;;;;;;;0.75;0.75;;;;;;;0.46;100.00;91430.75;4748895;30;20067;-80
2024/02/27 01:59:46;;;;;;;0.70;0.70;;;;;;;0.50;100.00;91431.81;4749962;30;20034;-81
2024/02/27 02:02:12;;;;;;;0.70;0.70;;;;;;;0.51;100.00;91433.34;4743123;30;20398;-80
2024/02/27 02:04:38;;;;;;;0.70;0.70;;;;;;;0.52;100.00;91437.47;4743125;30;20036;-79
2024/02/27 02:07:03;;;;;;;0.80;0.73;;;;;;;0.55;100.00;91436.97;4751116;30;20049;-79
2024/02/27 02:09:29;;;;;;;0.70;0.70;;;;;;;0.54;100.00;91431.06;4752397;30;20107;-80
2024/02/27 02:11:55;;;;;;;0.70;0.70;;;;;;;0.56;100.00;91438.50;4740991;30;20108;-80
2024/02/27 02:14:20;;;;;;;0.90;0.77;;;;;;;0.52;100.00;91438.25;4740965;30;20048;-80
2024/02/27 02:16:46;;;;;;;0.70;0.70;;;;;;;0.54;100.00;91435.41;4748156;30;20060;-80
2024/02/27 02:19:12;;;;;;;0.80;0.80;;;;;;;0.53;100.00;91444.94;4748089;30;20036;-80
2024/02/27 02:21:38;;;;;;;1.05;0.70;;;;;;;0.51;100.00;91444.41;4742751;30;20040;-80
2024/02/27 02:24:04;;;;;;;0.70;0.70;;;;;;;0.40;100.00;91429.94;4746367;30;20523;-80
2024/02/27 02:26:31;;;;;;;1.75;0.70;;;;;;;0.48;100.00;91442.34;4748086;30;20036;-80
2024/02/27 02:28:58;;;;;;;0.85;0.82;;;;;;;0.54;100.00;91448.28;4754692;30;20032;-79
2024/02/27 02:31:23;;;;;;;0.60;0.60;;;;;;;0.52;100.00;91448.56;4748942;30;20045;-80
2024/02/27 02:33:49;;;;;;;0.70;0.70;;;;;;;0.56;100.00;91457.34;4752224;30;20067;-81
2024/02/27 02:36:15;;;;;;;0.70;0.70;;;;;;;0.50;100.00;91450.59;4749483;30;20048;-80
2024/02/27 02:38:41;;;;;;;0.70;0.70;;;;;;;0.54;100.00;91451.66;4748351;30;20033;-80
2024/02/27 02:41:06;;;;;;;0.70;0.70;;;;;;;0.55;100.00;91463.50;4743164;30;20051;-80
2024/02/27 02:43:32;;;;;;;0.68;0.68;;;;;;;0.60;100.00;91476.41;4743725;30;20040;-80
2024/02/27 02:45:57;;;;;;;0.70;0.70;;;;;;;0.58;100.00;91478.44;4743165;30;20112;-80
2024/02/27 02:48:23;;;;;;;0.75;0.75;;;;;;;0.61;100.00;91485.69;4731568;30;20126;-80
2024/02/27 02:50:49;;;;;;;9.57;0.90;;;;;;;0.60;100.00;91476.41;4739096;30;20036;-80
2024/02/27 02:53:15;;;;;;;1.10;1.00;;;;;;;0.62;100.00;91494.19;4740429;30;20256;-80
2024/02/27 02:55:42;;;;;;;0.80;0.80;;;;;;;0.62;100.00;91494.94;4744471;30;20040;-80
2024/02/27 02:58:10;;;;;;;1.95;0.70;;;;;;;0.66;100.00;91494.47;4744957;30;20063;-80
2024/02/27 03:00:37;;;;;;;0.70;0.70;;;;;;;0.67;100.00;91489.06;4742247;30;20048;-80
2024/02/27 03:03:03;;;;;;;0.73;0.73;;;;;;;0.67;100.00;91493.44;4742063;30;20093;-80
2024/02/27 03:05:28;;;;;;;0.70;0.70;;;;;;;0.69;100.00;91499.13;4740358;30;20517;-80
2024/02/27 03:07:54;;;;;;;0.60;0.60;;;;;;;0.72;100.00;91496.03;4743687;30;20068;-80
2024/02/27 03:10:19;;;;;;;0.90;0.90;;;;;;;0.76;100.00;91500.44;4725467;30;20049;-80
2024/02/27 03:12:45;;;;;;;0.80;0.80;;;;;;;0.71;100.00;91484.19;4733386;30;20097;-80
2024/02/27 03:15:11;;;;;;;0.80;0.80;;;;;;;0.77;100.00;91490.94;4742032;30;20048;-80
2024/02/27 03:17:37;;;;;;;0.82;0.82;;;;;;;0.80;100.00;91480.09;4741797;30;20112;-80
2024/02/27 03:20:05;;;;;;;0.70;0.70;;;;;;;0.78;100.00;91462.31;4738861;30;20427;-80
2024/02/27 03:22:33;;;;;;;0.80;0.80;;;;;;;0.78;100.00;91446.84;4731260;30;20647;-80
2024/02/27 03:25:05;;;;;;;0.70;0.70;;;;;;;0.78;100.00;91435.78;4741365;30;20052;-80
2024/02/27 03:27:32;;;;;;;0.70;0.70;;;;;;;0.79;100.00;91432.97;4738442;30;20153;-80
2024/02/27 03:29:57;;;;;;;0.90;0.90;;;;;;;0.79;100.00;91432.97;4741083;30;20535;-80
2024/02/27 03:32:23;;;;;;;0.95;0.90;;;;;;;0.64;100.00;91414.88;4741954;30;20053;-79
2024/02/27 03:34:49;;;;;;;69.15;2.83;;;;;;;0.71;100.00;91417.22;4739211;30;20032;-80
2024/02/27 03:37:15;;;;;;;180.52;5.22;;;;;;;0.72;100.00;91405.88;4736697;30;20143;-80
2024/02/27 03:39:42;;;;;;;102.25;4.18;;;;;;;0.70;100.00;91397.63;4736023;30;20713;-79
2024/02/27 03:42:08;;;;;;;53.40;2.50;;;;;;;0.91;100.00;91417.28;4739583;30;20538;-79
2024/02/27 03:44:33;;;;;;;121.22;3.72;;;;;;;0.81;100.00;91436.06;4736275;30;20071;-80
2024/02/27 03:46:59;;;;;;;25.75;1.83;;;;;;;0.92;100.00;91441.25;4740476;30;20100;-79
2024/02/27 03:49:24;;;;;;;116.30;3.45;;;;;;;0.76;100.00;91438.59;4741780;30;20040;-79
2024/02/27 03:51:52;;;;;;;144.00;4.35;;;;;;;0.60;100.00;91430.03;4733774;30;20049;-79
2024/02/27 03:54:18;;;;;;;101.72;3.45;;;;;;;0.55;100.00;91435.16;4739522;30;20032;-81
2024/02/27 03:56:44;;;;;;;4.13;1.52;;;;;;;0.51;100.00;91435.94;4742335;30;20047;-81
2024/02/27 03:59:10;;;;;;;1.20;1.10;;;;;;;0.47;100.00;91424.56;4741513;30;20153;-79
2024/02/27 04:01:36;;;;;;;0.90;0.90;;;;;;;0.48;100.00;91423.56;4734502;30;20820;-79
2024/02/27 04:04:02;;;;;;;0.85;0.85;;;;;;;0.49;100.00;91422.53;4740233;30;20040;-79
2024/02/27 04:06:27;;;;;;;0.80;0.80;;;;;;;0.51;100.00;91431.53;4738012;30;20112;-79
2024/02/27 04:08:53;;;;;;;0.63;0.63;;;;;;;0.56;100.00;91447.03;4742022;30;20036;-80
2024/02/27 04:11:18;;;;;;;0.70;0.70;;;;;;;0.56;100.00;91444.47;4743980;30;20145;-79
2024/02/27 04:13:44;;;;;;;0.50;0.50;;;;;;;0.58;100.00;91439.81;4743876;30;20037;-79
2024/02/27 04:16:09;;;;;;;0.93;0.70;;;;;;;0.59;100.00;91441.38;4737631;30;20066;-81
2024/02/27 04:18:35;;;;;;;0.70;0.70;;;;;;;0.64;100.00;91445.00;4744352;30;20044;-79
2024/02/27 04:21:00;;;;;;;0.60;0.60;;;;;;;0.66;100.00;91450.69;4744004;30;20143;-79
2024/02/27 04:23:26;;;;;;;2.25;0.75;;;;;;;0.67;100.00;91444.50;4750897;30;20088;-79
2024/02/27 04:25:51;;;;;;;0.50;0.50;;;;;;;0.67;100.00;91440.13;4749098;30;20052;-80
2024/02/27 04:28:17;;;;;;;0.60;0.60;;;;;;;0.71;100.00;91450.69;4744014;30;20493;-79
2024/02/27 04:30:42;;;;;;;0.60;0.60;;;;;;;0.72;100.00;91441.94;4753059;30;20484;-79
2024/02/27 04:33:08;;;;;;;0.70;0.70;;;;;;;0.76;100.00;91437.84;4754952;30;20040;-79
2024/02/27 04:35:33;;;;;;;0.68;0.68;;;;;;;0.74;100.00;91440.66;4752917;30;20078;-81
2024/02/27 04:37:59;;;;;;;0.50;0.50;;;;;;;0.75;100.00;91436.31;4748738;30;20127;-81
2024/02/27 04:40:25;;;;;;;0.55;0.55;;;;;;;0.73;100.00;91439.13;4742177;30;20048;-80
2024/02/27 04:42:51;;;;;;;0.52;0.52;;;;;;;0.76;100.00;91443.75;4750067;30;20056;-79
2024/02/27 04:45:16;;;;;;;0.60;0.60;;;;;;;0.77;100.00;91436.81;4759596;30;20466;-79
2024/02/27 04:47:42;;;;;;;0.50;0.50;;;;;;;0.79;100.00;91432.19;4743191;30;20032;-79
2024/02/27 04:50:08;;;;;;;0.60;0.60;;;;;;;0.79;100.00;91439.94;4741545;30;20045;-80
2024/02/27 04:52:33;;;;;;;0.60;0.60;;;;;;;0.78;100.00;91430.63;4751990;30;20048;-80
2024/02/27 04:54:59;;;;;;;0.60;0.60;;;;;;;0.78;100.00;91425.47;4732875;30;20047;-80
2024/02/27 04:57:26;;;;;;;0.60;0.60;;;;;;;0.76;100.00;91422.38;4735566;30;20033;-79
2024/02/27 04:59:51;;;;;;;0.70;0.70;;;;;;;0.77;100.00;91413.63;4737992;30;20079;-79
2024/02/27 05:02:19;;;;;;;0.70;0.70;;;;;;;0.76;100.00;91406.91;4735818;30;20044;-79
2024/02/27 05:04:45;;;;;;;0.63;0.63;;;;;;;0.80;100.00;91410.53;4738827;30;20041;-80
2024/02/27 05:07:10;;;;;;;0.70;0.60;;;;;;;0.80;100.00;91407.97;4741116;30;20064;-79
2024/02/27 05:09:36;;;;;;;0.65;0.65;;;;;;;0.81;100.00;91414.66;4737704;30;20502;-80
2024/02/27 05:12:01;;;;;;;5.97;0.88;;;;;;;0.84;100.00;91406.44;4744116;30;20071;-79
2024/02/27 05:14:27;;;;;;;1.00;0.98;;;;;;;0.83;100.00;91392.00;4737421;30;20064;-80
2024/02/27 05:16:52;;;;;;;1.17;1.08;;;;;;;0.87;100.00;91400.00;4740542;30;20110;-79
2024/02/27 05:19:18;;;;;;;0.75;0.75;;;;;;;0.88;100.00;91401.53;4735173;30;20051;-79
2024/02/27 05:21:44;;;;;;;0.70;0.70;;;;;;;0.89;100.00;91396.16;4732360;30;20051;-79
2024/02/27 05:24:09;;;;;;;0.70;0.70;;;;;;;0.91;100.00;91391.50;4771703;30;20048;-80
2024/02/27 05:26:36;;;;;;;0.70;0.70;;;;;;;1.01;100.00;91393.34;4744191;30;20037;-80
2024/02/27 05:29:02;;;;;;;0.75;0.75;;;;;;;1.07;100.00;91399.28;4734729;30;20131;-79
2024/02/27 05:31:32;;;;;;;0.55;0.55;;;;;;;1.01;100.00;91381.25;4744151;30;20080;-79
2024/02/27 05:33:59;;;;;;;0.60;0.60;;;;;;;1.04;100.00;91383.31;4739521;30;20024;-79
2024/02/27 05:36:26;;;;;;;0.60;0.60;;;;;;;1.09;100.00;91381.78;4742177;30;20048;-79
2024/02/27 05:38:55;;;;;;;0.57;0.57;;;;;;;1.16;100.00;91385.66;4739579;30;20035;-80
2024/02/27 05:41:21;;;;;;;0.73;0.73;;;;;;;1.22;100.00;91376.13;4737933;30;20033;-80
2024/02/27 05:43:47;;;;;;;0.50;0.50;;;;;;;1.38;100.00;91377.69;4740679;30;20044;-81
2024/02/27 05:46:13;;;;;;;0.60;0.60;;;;;;;1.50;100.00;91368.91;4744075;30;20098;-82
2024/02/27 05:48:41;;;;;;;0.60;0.60;;;;;;;1.52;100.00;91383.09;4741902;30;20033;-81
2024/02/27 05:51:06;;;;;;;0.60;0.60;;;;;;;1.54;100.00;91393.19;4753152;30;20071;-85
2024/02/27 05:53:34;;;;;;;0.70;0.70;;;;;;;1.51;100.00;91398.84;4739001;30;20041;-81
2024/02/27 05:56:00;;;;;;;0.60;0.60;;;;;;;1.48;100.00;91407.09;4739867;30;20033;-81
2024/02/27 05:58:26;;;;;;;0.60;0.60;;;;;;;1.47;100.00;91411.47;4743768;30;20096;-82
2024/02/27 06:00:53;;;;;;;0.50;0.50;;;;;;;1.43;100.00;91411.22;4737747;30;20045;-81
2024/02/27 06:03:19;;;;;;;0.85;0.80;;;;;;;1.42;100.00;91416.63;4740108;30;20056;-81
2024/02/27 06:05:45;;;;;;;1.73;0.68;;;;;;;1.49;100.00;91437.78;4723588;30;20185;-81
2024/02/27 06:08:11;;;;;;;0.65;0.65;;;;;;;1.44;100.00;91433.41;4734469;30;20076;-81
2024/02/27 06:10:37;;;;;;;0.57;0.57;;;;;;;1.42;100.00;91437.28;4732069;30;20043;-81
2024/02/27 06:13:03;;;;;;;0.60;0.60;;;;;;;1.41;100.00;91443.44;4742291;30;20048;-82
2024/02/27 06:15:28;;;;;;;0.70;0.70;;;;;;;1.30;100.00;91427.16;4740878;30;20051;-81
2024/02/27 06:17:54;;;;;;;0.82;0.80;;;;;;;1.37;100.00;91453.47;4748462;30;20056;-80
2024/02/27 06:23:03;;;;;;;0.60;0.60;;;;;;;1.38;100.00;91454.28;4746694;30;20049;-81
2024/02/27 06:25:29;;;;;;;0.82;0.82;;;;;;;1.34;100.00;91448.84;4741301;30;20040;-81
2024/02/27 06:27:55;;;;;;;0.75;0.75;;;;;;;1.40;100.00;91463.31;4752998;30;20098;-79
2024/02/27 06:30:20;;;;;;;0.77;0.77;;;;;;;1.40;100.00;91468.47;4731760;30;20061;-81
2024/02/27 06:32:46;;;;;;;0.68;0.68;;;;;;;1.39;100.00;91471.28;4739075;30;20112;-82
2024/02/27 06:35:11;;;;;;;0.68;0.68;;;;;;;1.38;100.00;91480.84;4737189;30;20029;-80
2024/02/27 06:37:37;;;;;;;0.65;0.65;;;;;;;1.40;100.00;91473.63;4740097;30;20048;-81
2024/02/27 06:40:04;;;;;;;0.60;0.60;;;;;;;1.40;100.00;91478.00;4739348;30;20048;-82
2024/02/27 06:42:41;;;;;;;0.80;0.80;;;;;;;1.41;100.00;91477.75;4737317;30;20037;-82
2024/02/27 06:45:07;;;;;;;1.40;1.02;;;;;;;1.44;100.00;91476.44;4743658;30;20437;-82
2024/02/27 06:47:36;;;;;;;1.42;0.95;;;;;;;1.44;100.00;91473.88;4741875;30;20044;-81
2024/02/27 06:50:02;;;;;;;0.80;0.80;;;;;;;1.44;100.00;91477.25;4741774;30;20044;-80
2024/02/27 06:52:27;;;;;;;0.75;0.75;;;;;;;1.58;100.00;91474.19;4746871;30;20032;-82
2024/02/27 06:54:53;;;;;;;1.48;1.10;;;;;;;1.66;100.00;91478.81;4738061;30;20051;-80
2024/02/27 06:57:19;;;;;;;88.10;3.42;;;;;;;1.59;100.00;91481.66;4729039;30;20136;-79
2024/02/27 06:59:44;;;;;;;60.92;2.60;;;;;;;1.53;100.00;91492.22;4741866;30;20040;-79
2024/02/27 07:02:11;;;;;;;1.30;1.20;;;;;;;1.56;100.00;91486.56;4739928;30;20053;-80
2024/02/27 07:04:37;;;;;;;2.40;1.30;;;;;;;1.49;100.00;91486.00;4738010;30;20059;-79
2024/02/27 07:07:04;;;;;;;1.65;1.20;;;;;;;1.48;100.00;91492.19;4720595;30;20040;-79
2024/02/27 07:09:33;;;;;;;1.17;1.00;;;;;;;1.45;100.00;91486.53;4725229;30;20329;-80
2024/02/27 07:11:59;;;;;;;0.57;0.57;;;;;;;1.69;100.00;91491.22;4728351;30;20041;-78
2024/02/27 07:14:27;;;;;;;0.50;0.50;;;;;;;1.71;100.00;91486.56;4728408;30;20387;-78
2024/02/27 07:16:53;;;;;;;0.55;0.55;;;;;;;1.83;100.00;91494.84;4726953;30;20115;-80
2024/02/27 07:19:21;;;;;;;0.60;0.60;;;;;;;1.92;100.00;91489.19;4731903;30;20036;-80
2024/02/27 07:21:49;;;;;;;0.60;0.60;;;;;;;1.98;100.00;91494.09;4726699;30;20108;-80
2024/02/27 07:24:16;;;;;;;0.50;0.50;;;;;;;1.98;100.00;91488.13;4737553;30;20036;-80
2024/02/27 07:26:42;;;;;;;0.70;0.60;;;;;;;2.05;100.00;91499.00;4732004;30;20028;-79
2024/02/27 07:29:08;;;;;;;0.95;0.77;;;;;;;2.12;100.00;91512.44;4737501;30;20037;-81
2024/02/27 07:31:34;;;;;;;0.65;0.65;;;;;;;2.15;100.00;91517.06;4744228;30;20070;-79
2024/02/27 07:34:00;;;;;;;1.95;1.27;;;;;;;2.19;100.00;91528.44;4745068;30;20060;-79
2024/02/27 07:36:26;;;;;;;1.13;0.90;;;;;;;2.11;100.00;91536.69;4725918;30;20087;-78
2024/02/27 07:38:52;;;;;;;22.85;1.55;;;;;;;2.18;100.00;91539.00;4741690;30;20102;-79
2024/02/27 07:41:19;;;;;;;1.08;0.80;;;;;;;1.98;100.00;91539.75;4737547;30;20338;-80
2024/02/27 07:43:46;;;;;;;1.00;0.90;;;;;;;1.99;100.00;91528.41;4731958;30;20036;-80
2024/02/27 07:46:13;;;;;;;0.60;0.60;;;;;;;1.94;100.00;91538.75;4733994;30;20123;-79
2024/02/27 07:48:44;;;;;;;0.70;0.70;;;;;;;1.91;100.00;91539.25;4734231;30;20083;-78
2024/02/27 07:51:28;;;;;;;0.70;0.70;;;;;;;1.97;100.00;91548.56;4731345;30;20112;-79
2024/02/27 07:53:54;;;;;;;0.60;0.60;;;;;;;1.96;100.00;91541.81;4729127;30;20044;-80
2024/02/27 07:56:19;;;;;;;0.55;0.55;;;;;;;1.98;100.00;91550.09;4732529;30;20051;-79
2024/02/27 07:58:46;;;;;;;0.98;0.70;;;;;;;1.96;100.00;91552.94;4733632;30;20061;-80
2024/02/27 08:01:12;;;;;;;0.68;0.68;;;;;;;1.86;100.00;91542.59;4734494;30;20564;-79
2024/02/27 08:03:38;;;;;;;0.65;0.65;;;;;;;1.92;100.00;91551.13;4732277;30;20041;-80
2024/02/27 08:06:06;;;;;;;0.70;0.70;;;;;;;1.94;100.00;91559.41;4733883;30;20792;-80
2024/02/27 08:08:31;;;;;;;0.60;0.60;;;;;;;1.94;100.00;91564.56;4738135;30;20113;-80
2024/02/27 08:10:57;;;;;;;0.80;0.80;;;;;;;1.93;100.00;91563.75;4740839;30;20037;-80
2024/02/27 08:13:22;;;;;;;0.82;0.80;;;;;;;1.92;100.00;91553.72;4737032;30;20036;-80
2024/02/27 08:15:50;;;;;;;0.70;0.60;;;;;;;1.92;100.00;91558.88;4737168;30;20056;-80
2024/02/27 08:18:15;;;;;;;0.60;0.60;;;;;;;1.92;100.00;91551.13;4745690;30;20052;-79
2024/02/27 08:20:42;;;;;;;0.60;0.60;;;;;;;1.95;100.00;91551.38;4743123;30;20041;-79
2024/02/27 08:23:09;;;;;;;0.82;0.75;;;;;;;1.96;100.00;91557.31;4738560;30;20052;-80
2024/02/27 08:25:37;;;;;;;3.40;1.38;;;;;;;2.07;100.00;91559.66;4734089;30;20493;-80
2024/02/27 08:28:03;;;;;;;90.75;3.47;;;;;;;2.19;100.00;91566.41;4748882;30;20047;-79
2024/02/27 08:30:29;;;;;;;373.40;9.18;;;;;;;2.14;100.00;91569.75;4738564;30;20044;-80
2024/02/27 08:32:55;;;;;;;297.45;6.88;;;;;;;2.05;100.00;91579.81;4731936;30;20036;-80
2024/02/27 08:35:20;;;;;;;173.90;4.47;;;;;;;1.93;100.00;91576.66;4731789;30;20036;-79
2024/02/27 08:37:46;;;;;;;4.65;1.50;;;;;;;1.88;100.00;91582.59;4731412;30;20044;-80
2024/02/27 08:40:12;;;;;;;5.15;1.67;;;;;;;1.90;100.00;91584.16;4732292;30;20085;-79
2024/02/27 08:42:38;;;;;;;4.50;1.40;;;;;;;1.90;100.00;91581.59;4728801;30;20097;-80
2024/02/27 08:45:04;;;;;;;1.60;1.15;;;;;;;1.92;100.00;91574.38;4730179;30;20036;-79
2024/02/27 08:47:29;;;;;;;1.67;1.30;;;;;;;1.92;100.00;91577.72;4732535;30;20040;-79
2024/02/27 08:49:55;;;;;;;3.85;0.80;;;;;;;1.96;100.00;91578.75;4733101;30;20094;-79
2024/02/27 08:52:20;;;;;;;0.80;0.80;;;;;;;2.01;100.00;91585.72;4732624;30;20049;-80
2024/02/27 08:54:46;;;;;;;1.55;1.00;;;;;;;2.04;100.00;91583.41;4732546;30;20595;-80
2024/02/27 08:57:11;;;;;;;1.45;1.10;;;;;;;1.95;100.00;91571.25;4729304;30;20051;-80
2024/02/27 08:59:39;;;;;;;1.10;1.00;;;;;;;2.02;100.00;91574.38;4745116;30;20047;-80
2024/02/27 09:02:06;;;;;;;0.98;0.88;;;;;;;2.05;100.00;91582.38;4733339;30;20140;-80
2024/02/27 09:04:34;;;;;;;0.80;0.80;;;;;;;2.04;100.00;91580.06;4731348;30;20528;-81
2024/02/27 09:07:00;;;;;;;3.53;1.00;;;;;;;2.08;100.00;91587.03;4731068;30;20076;-81
2024/02/27 09:09:26;;;;;;;1.15;1.05;;;;;;;2.10;100.00;91591.19;4732775;30;20072;-80
2024/02/27 09:11:52;;;;;;;1.17;1.08;;;;;;;2.15;100.00;91599.69;4732540;30;20059;-81
2024/02/27 09:14:18;;;;;;;1.27;1.00;;;;;;;2.17;100.00;91607.19;4728678;30;20051;-80
2024/02/27 09:16:44;;;;;;;7.55;1.38;;;;;;;2.33;100.00;91613.16;4732729;30;20072;-81
2024/02/27 09:19:10;;;;;;;1.40;1.10;;;;;;;2.29;100.00;91618.81;4734829;30;20455;-79
2024/02/27 09:21:35;;;;;;;1.73;1.20;;;;;;;2.24;100.00;91607.72;4738318;30;20079;-79
2024/02/27 09:24:01;;;;;;;1.25;0.90;;;;;;;2.27;100.00;91600.25;4740450;30;20040;-80
2024/02/27 09:26:27;;;;;;;1.40;1.20;;;;;;;2.31;100.00;91608.22;4742599;30;20067;-80
2024/02/27 09:28:53;;;;;;;1.25;1.00;;;;;;;2.35;100.00;91611.84;4739745;30;20462;-79
2024/02/27 09:31:18;;;;;;;0.98;0.82;;;;;;;2.53;100.00;91615.75;4736561;30;20055;-80
2024/02/27 09:33:44;;;;;;;0.98;0.98;;;;;;;2.50;100.00;91626.59;4731858;30;20041;-81
2024/02/27 09:36:09;;;;;;;0.93;0.85;;;;;;;2.52;100.00;91631.50;4738704;30;20115;-79
2024/02/27 09:38:35;;;;;;;0.88;0.88;;;;;;;2.51;100.00;91630.72;4737112;30;20049;-81
2024/02/27 09:41:00;;;;;;;3.00;1.17;;;;;;;2.54;100.00;91627.63;4722427;30;20048;-81
2024/02/27 09:43:30;;;;;;;1.98;1.00;;;;;;;2.61;100.00;91629.94;4736376;30;20036;-81
2024/02/27 09:45:57;;;;;;;1.83;1.15;;;;;;;2.62;100.00;91621.94;4740854;30;20044;-79
2024/02/27 09:48:28;;;;;;;0.82;0.82;;;;;;;2.67;100.00;91618.59;4735444;30;20033;-80
2024/02/27 09:50:56;;;;;;;1.17;1.00;;;;;;;2.69;100.00;91627.63;4739440;30;20040;-80
2024/02/27 09:53:22;;;;;;;2.28;0.90;;;;;;;2.77;100.00;91633.31;4742868;30;20463;-80
2024/02/27 09:55:48;;;;;;;4.53;2.17;;;;;;;3.01;100.00;91639.50;4737531;30;20059;-81
2024/02/27 09:58:15;;;;;;;27.38;1.88;;;;;;;2.90;100.00;91640.56;4741689;30;20512;-80
2024/02/27 10:00:40;;;;;;;99.68;3.35;;;;;;;2.75;100.00;91632.78;4741688;30;20040;-79
2024/02/27 10:03:07;;;;;;;125.28;3.75;;;;;;;2.69;100.00;91632.81;4734409;30;20113;-79
2024/02/27 10:05:37;;;;;;;39.22;1.90;;;;;;;2.88;100.00;91646.00;4737996;30;20268;-80
2024/02/27 10:08:08;;;;;;;22.88;1.70;;;;;;;2.87;100.00;91648.84;4733303;30;20402;-80
2024/02/27 10:10:34;;;;;;;3.80;1.23;;;;;;;2.85;100.00;91659.44;4737597;30;20080;-81
2024/02/27 10:13:00;;;;;;;1.60;1.20;;;;;;;2.86;100.00;91647.28;4734516;30;20041;-81
2024/02/27 10:15:25;;;;;;;2.33;1.30;;;;;;;2.88;100.00;91648.59;4735884;30;20051;-81
2024/02/27 10:17:52;;;;;;;1.17;0.90;;;;;;;2.90;100.00;91656.06;4735466;30;20501;-81
2024/02/27 10:20:20;;;;;;;0.68;0.68;;;;;;;2.88;100.00;91655.53;4730560;30;20040;-80
2024/02/27 10:22:46;;;;;;;0.70;0.70;;;;;;;2.87;100.00;91656.59;4740311;30;20047;-81
2024/02/27 10:25:14;;;;;;;0.73;0.73;;;;;;;2.87;100.00;91648.84;4741625;30;20059;-80
2024/02/27 10:27:42;;;;;;;0.77;0.77;;;;;;;2.92;100.00;91646.25;4739665;30;20020;-81
2024/02/27 10:30:09;;;;;;;2.17;1.50;;;;;;;2.88;100.00;91632.28;4744536;30;20040;-81
2024/02/27 10:32:34;;;;;;;2.08;1.30;;;;;;;3.02;100.00;91641.06;4735494;30;20096;-82
2024/02/27 10:35:03;;;;;;;2.47;1.80;;;;;;;3.07;100.00;91640.28;4732420;30;20064;-79
2024/02/27 10:37:31;;;;;;;2.92;1.88;;;;;;;3.10;100.00;91643.13;4735411;30;20039;-81
2024/02/27 10:39:59;;;;;;;3.17;2.00;;;;;;;3.23;100.00;91646.22;4737012;30;20055;-80
2024/02/27 10:42:27;;;;;;;2.08;1.38;;;;;;;3.27;100.00;91647.25;4736798;30;20044;-79
2024/02/27 10:44:53;;;;;;;19.33;1.38;;;;;;;3.46;100.00;91656.00;4740535;30;20059;-81
2024/02/27 10:47:20;;;;;;;2.55;1.40;;;;;;;3.30;100.00;91657.06;4737448;30;20045;-81
2024/02/27 10:49:49;;;;;;;2.13;1.40;;;;;;;3.22;100.00;91658.38;4735579;30;20044;-80
2024/02/27 10:52:17;;;;;;;5.88;1.40;;;;;;;3.18;100.00;91654.75;4739442;30;20264;-81
2024/02/27 10:54:45;;;;;;;8.80;1.52;;;;;;;3.23;100.00;91669.50;4735938;30;20036;-79
2024/02/27 10:57:13;;;;;;;1.52;1.17;;;;;;;3.30;100.00;91672.59;4743102;30;20036;-79
2024/02/27 10:59:39;;;;;;;17.80;1.67;;;;;;;3.35;100.00;91670.00;4744940;30;20103;-80
2024/02/27 11:02:19;;;;;;;55.33;2.78;;;;;;;3.41;100.00;91673.34;4738037;30;20044;-80
2024/02/27 11:04:46;;;;;;;61.80;2.55;;;;;;;3.34;100.00;91658.09;4735681;30;20036;-79
2024/02/27 11:07:15;;;;;;;3.10;1.30;;;;;;;3.36;100.00;91666.38;4724859;30;20139;-80
2024/02/27 11:09:44;;;;;;;2.53;1.63;;;;;;;3.38;100.00;91658.34;4742887;30;20856;-80
2024/02/27 11:12:14;;;;;;;2.95;1.90;;;;;;;3.43;100.00;91666.13;4731210;30;20102;-81
2024/02/27 11:14:43;;;;;;;3.10;1.90;;;;;;;3.43;100.00;91666.88;4743254;30;20125;-81
2024/02/27 11:17:15;;;;;;;257.83;8.10;;;;;;;3.53;100.00;91677.22;4734512;30;20048;-80
2024/02/27 11:19:47;;;;;;;333.42;9.70;;;;;;;3.50;100.00;91664.03;4732179;30;20541;-81
2024/02/27 11:22:13;;;;;;;114.93;4.47;;;;;;;3.50;100.00;91672.56;4732002;30;20119;-80
2024/02/27 11:24:39;;;;;;;559.63;14.88;;;;;;;3.51;100.00;91671.53;4731992;30;20150;-80
2024/02/27 11:27:05;;;;;;;350.48;9.32;;;;;;;3.65;100.00;91673.56;4760471;30;20048;-80
2024/02/27 11:29:31;;;;;;;778.75;25.02;;;;;;;3.46;100.00;91674.09;4737290;30;20472;-79